ABY148 OEJN-OMSJ
Flight info
| Callsign | ABY148 |
|---|---|
| Flight time | 2h 19m |
| Altitude | 37000 |
| Route | EGREP T532 KODIS Y214 RAPMA DCT KUVSO DCT RIBOT M550 GOLGU M318 ATUDO/N0459F350 M318 RURAL Q317 LORID |
| Aircraft | A21N/M-SDE2E3FGHIRWXY/LB1 |
Departure
| Time | 2026-04-22 13:43 |
|---|---|
| Airport | King Abdulaziz International Airport (OEJN) |
Arrival
| Time | 2026-04-22 16:02 |
|---|---|
| Airport | Sharjah International Airport (OMSJ) |
| Time | Latitude | Longitude | Altitude | Speed | Heading |
|---|---|---|---|---|---|
| 2026-04-22 13:36 | 21.66701 | 39.17544 | 38 ft | 0 kts | 338° |
| 2026-04-22 13:38 | 21.66687 | 39.17550 | 38 ft | 2 kts | 349° |
| 2026-04-22 13:39 | 21.66664 | 39.17553 | 38 ft | 4 kts | 5° |
| 2026-04-22 13:39 | 21.66641 | 39.17549 | 38 ft | 1 kts | 11° |
| 2026-04-22 13:39 | 21.66636 | 39.17548 | 38 ft | 0 kts | 11° |
| 2026-04-22 13:41 | 21.66636 | 39.17549 | 38 ft | 1 kts | 13° |
| 2026-04-22 13:41 | 21.66644 | 39.17575 | 38 ft | 8 kts | 81° |
| 2026-04-22 13:41 | 21.66658 | 39.17659 | 38 ft | 12 kts | 76° |
| 2026-04-22 13:41 | 21.66685 | 39.17743 | 39 ft | 12 kts | 70° |
| 2026-04-22 13:42 | 21.66714 | 39.17827 | 39 ft | 13 kts | 70° |
| 2026-04-22 13:42 | 21.66746 | 39.17919 | 39 ft | 13 kts | 69° |
| 2026-04-22 13:42 | 21.66794 | 39.17989 | 40 ft | 11 kts | 7° |
| 2026-04-22 13:42 | 21.66951 | 39.17928 | 40 ft | 50 kts | 340° |
| 2026-04-22 13:43 | 21.67458 | 39.17732 | 35 ft | 105 kts | 340° |
| 2026-04-22 13:43 | 21.68326 | 39.17392 | 31 ft | 159 kts | 339° |
| 2026-04-22 13:43 | 21.69477 | 39.16942 | 151 ft | 184 kts | 340° |
| 2026-04-22 13:43 | 21.70687 | 39.16533 | 680 ft | 180 kts | 343° |
| 2026-04-22 13:44 | 21.71865 | 39.16286 | 1388 ft | 172 kts | 348° |
| 2026-04-22 13:44 | 21.73110 | 39.16118 | 1734 ft | 191 kts | 353° |
| 2026-04-22 13:44 | 21.74498 | 39.16363 | 1889 ft | 218 kts | 21° |
| 2026-04-22 13:44 | 21.75888 | 39.17235 | 2039 ft | 246 kts | 31° |
| 2026-04-22 13:45 | 21.77351 | 39.18326 | 2321 ft | 264 kts | 32° |
| 2026-04-22 13:45 | 21.78878 | 39.19483 | 2856 ft | 272 kts | 32° |
| 2026-04-22 13:45 | 21.80447 | 39.20660 | 3429 ft | 277 kts | 32° |
| 2026-04-22 13:45 | 21.82049 | 39.21849 | 3995 ft | 282 kts | 32° |
| 2026-04-22 13:46 | 21.83684 | 39.23055 | 4607 ft | 286 kts | 32° |
| 2026-04-22 13:46 | 21.85337 | 39.24269 | 5209 ft | 290 kts | 32° |
| 2026-04-22 13:46 | 21.87015 | 39.25499 | 5815 ft | 293 kts | 33° |
| 2026-04-22 13:46 | 21.88715 | 39.26746 | 6400 ft | 298 kts | 33° |
| 2026-04-22 13:47 | 21.90438 | 39.28009 | 6995 ft | 301 kts | 33° |
| 2026-04-22 13:47 | 21.92179 | 39.29286 | 7609 ft | 303 kts | 33° |
| 2026-04-22 13:47 | 21.93924 | 39.30536 | 8190 ft | 305 kts | 31° |
| 2026-04-22 13:47 | 21.95742 | 39.31758 | 8765 ft | 309 kts | 31° |
| 2026-04-22 13:48 | 21.97585 | 39.32977 | 9333 ft | 312 kts | 31° |
| 2026-04-22 13:48 | 21.99453 | 39.34211 | 9900 ft | 315 kts | 31° |
| 2026-04-22 13:48 | 22.01340 | 39.35457 | 10187 ft | 329 kts | 31° |
| 2026-04-22 13:48 | 22.03341 | 39.36778 | 10397 ft | 345 kts | 31° |
| 2026-04-22 13:49 | 22.05436 | 39.38163 | 10606 ft | 360 kts | 31° |
| 2026-04-22 13:49 | 22.07614 | 39.39604 | 10812 ft | 374 kts | 31° |
| 2026-04-22 13:49 | 22.09868 | 39.41097 | 11011 ft | 386 kts | 31° |
| 2026-04-22 13:49 | 22.12189 | 39.42635 | 11266 ft | 395 kts | 31° |
| 2026-04-22 13:50 | 22.13747 | 39.43668 | 11531 ft | 398 kts | 31° |
| 2026-04-22 13:50 | 22.16114 | 39.45238 | 12002 ft | 401 kts | 31° |
| 2026-04-22 13:50 | 22.19313 | 39.47360 | 12610 ft | 404 kts | 31° |
| 2026-04-22 13:50 | 22.20903 | 39.48414 | 12757 ft | 404 kts | 31° |
| 2026-04-22 13:51 | 22.23304 | 39.50004 | 12829 ft | 406 kts | 31° |
| 2026-04-22 13:51 | 22.25727 | 39.51611 | 13228 ft | 409 kts | 31° |
| 2026-04-22 13:51 | 22.28158 | 39.53223 | 13764 ft | 411 kts | 31° |
| 2026-04-22 13:51 | 22.31321 | 39.55504 | 14436 ft | 414 kts | 40° |
| 2026-04-22 13:52 | 22.32677 | 39.56978 | 14727 ft | 417 kts | 52° |
| 2026-04-22 13:52 | 22.34272 | 39.59598 | 15173 ft | 420 kts | 60° |
| 2026-04-22 13:52 | 22.35700 | 39.62359 | 15607 ft | 423 kts | 62° |
| 2026-04-22 13:52 | 22.37119 | 39.65160 | 16042 ft | 426 kts | 62° |
| 2026-04-22 13:53 | 22.38555 | 39.67987 | 16460 ft | 429 kts | 61° |
| 2026-04-22 13:53 | 22.39999 | 39.70816 | 16861 ft | 432 kts | 61° |
| 2026-04-22 13:53 | 22.41470 | 39.73679 | 17204 ft | 436 kts | 61° |
| 2026-04-22 13:53 | 22.42950 | 39.76560 | 17592 ft | 438 kts | 61° |
| 2026-04-22 13:54 | 22.44437 | 39.79452 | 17911 ft | 442 kts | 60° |
| 2026-04-22 13:54 | 22.46037 | 39.82308 | 18211 ft | 445 kts | 54° |
| 2026-04-22 13:54 | 22.48007 | 39.84883 | 18520 ft | 445 kts | 45° |
| 2026-04-22 13:54 | 22.50187 | 39.87212 | 18800 ft | 447 kts | 41° |
| 2026-04-22 13:55 | 22.52501 | 39.89470 | 19091 ft | 448 kts | 39° |
| 2026-04-22 13:55 | 22.54865 | 39.91681 | 19347 ft | 451 kts | 38° |
| 2026-04-22 13:55 | 22.58063 | 39.94641 | 19685 ft | 454 kts | 38° |
| 2026-04-22 13:55 | 22.59655 | 39.96120 | 19805 ft | 456 kts | 38° |
| 2026-04-22 13:56 | 22.62065 | 39.98380 | 20049 ft | 458 kts | 39° |
| 2026-04-22 13:56 | 22.64467 | 40.00653 | 20296 ft | 460 kts | 39° |
| 2026-04-22 13:56 | 22.66874 | 40.02947 | 20564 ft | 461 kts | 39° |
| 2026-04-22 13:56 | 22.69256 | 40.05225 | 20785 ft | 463 kts | 39° |
| 2026-04-22 13:57 | 22.71684 | 40.07552 | 21024 ft | 465 kts | 39° |
| 2026-04-22 13:57 | 22.74114 | 40.09884 | 21255 ft | 468 kts | 39° |
| 2026-04-22 13:57 | 22.76556 | 40.12226 | 21492 ft | 469 kts | 39° |
| 2026-04-22 13:57 | 22.79004 | 40.14576 | 21734 ft | 472 kts | 39° |
| 2026-04-22 13:58 | 22.81477 | 40.16950 | 21989 ft | 474 kts | 38° |
| 2026-04-22 13:58 | 22.83924 | 40.19299 | 22220 ft | 475 kts | 38° |
| 2026-04-22 13:58 | 22.86435 | 40.21709 | 22497 ft | 477 kts | 38° |
| 2026-04-22 13:58 | 22.88928 | 40.24105 | 22718 ft | 479 kts | 38° |
| 2026-04-22 13:59 | 22.91398 | 40.26479 | 22954 ft | 481 kts | 38° |
| 2026-04-22 13:59 | 22.93906 | 40.28892 | 23205 ft | 483 kts | 38° |
| 2026-04-22 13:59 | 22.96426 | 40.31317 | 23477 ft | 485 kts | 38° |
| 2026-04-22 13:59 | 22.98959 | 40.33756 | 23736 ft | 488 kts | 38° |
| 2026-04-22 14:00 | 23.01504 | 40.36210 | 24002 ft | 489 kts | 38° |
| 2026-04-22 14:00 | 23.04059 | 40.38674 | 24266 ft | 491 kts | 38° |
| 2026-04-22 14:00 | 23.06618 | 40.41140 | 24536 ft | 493 kts | 38° |
| 2026-04-22 14:00 | 23.09205 | 40.43636 | 24785 ft | 496 kts | 38° |
| 2026-04-22 14:01 | 23.11768 | 40.46107 | 25040 ft | 498 kts | 38° |
| 2026-04-22 14:01 | 23.14367 | 40.48617 | 25296 ft | 501 kts | 38° |
| 2026-04-22 14:01 | 23.16974 | 40.51138 | 25544 ft | 503 kts | 37° |
| 2026-04-22 14:01 | 23.19596 | 40.53674 | 25815 ft | 505 kts | 37° |
| 2026-04-22 14:02 | 23.22225 | 40.56217 | 26066 ft | 507 kts | 37° |
| 2026-04-22 14:02 | 23.24828 | 40.58840 | 26314 ft | 511 kts | 42° |
| 2026-04-22 14:02 | 23.27116 | 40.61839 | 26561 ft | 518 kts | 52° |
| 2026-04-22 14:02 | 23.28913 | 40.65261 | 26814 ft | 523 kts | 62° |
| 2026-04-22 14:03 | 23.30383 | 40.68876 | 27145 ft | 523 kts | 65° |
| 2026-04-22 14:03 | 23.31714 | 40.72516 | 27426 ft | 524 kts | 67° |
| 2026-04-22 14:03 | 23.32994 | 40.76234 | 27664 ft | 525 kts | 68° |
| 2026-04-22 14:03 | 23.34254 | 40.79977 | 27927 ft | 526 kts | 68° |
| 2026-04-22 14:04 | 23.35509 | 40.83713 | 28220 ft | 525 kts | 68° |
| 2026-04-22 14:04 | 23.36776 | 40.87456 | 28505 ft | 525 kts | 67° |
| 2026-04-22 14:04 | 23.38052 | 40.91192 | 28741 ft | 526 kts | 67° |
| 2026-04-22 14:04 | 23.39339 | 40.94932 | 28989 ft | 527 kts | 67° |
| 2026-04-22 14:05 | 23.40629 | 40.98666 | 29289 ft | 526 kts | 67° |
| 2026-04-22 14:05 | 23.41917 | 41.02390 | 29546 ft | 526 kts | 66° |
| 2026-04-22 14:05 | 23.44493 | 41.09857 | 30032 ft | 527 kts | 66° |
| 2026-04-22 14:06 | 23.45768 | 41.13555 | 30247 ft | 528 kts | 66° |
| 2026-04-22 14:06 | 23.47065 | 41.17313 | 30494 ft | 528 kts | 66° |
| 2026-04-22 14:06 | 23.48355 | 41.21058 | 30763 ft | 528 kts | 66° |
| 2026-04-22 14:06 | 23.49647 | 41.24814 | 31032 ft | 527 kts | 66° |
| 2026-04-22 14:07 | 23.50935 | 41.28565 | 31269 ft | 527 kts | 66° |
| 2026-04-22 14:07 | 23.52223 | 41.32316 | 31486 ft | 528 kts | 66° |
| 2026-04-22 14:07 | 23.53491 | 41.36016 | 31717 ft | 528 kts | 66° |
| 2026-04-22 14:07 | 23.54777 | 41.39769 | 31933 ft | 529 kts | 66° |
| 2026-04-22 14:08 | 23.56061 | 41.43518 | 32175 ft | 528 kts | 66° |
| 2026-04-22 14:08 | 23.57350 | 41.47288 | 32408 ft | 528 kts | 66° |
| 2026-04-22 14:08 | 23.58635 | 41.51050 | 32606 ft | 528 kts | 65° |
| 2026-04-22 14:08 | 23.59906 | 41.54773 | 32812 ft | 528 kts | 65° |
| 2026-04-22 14:09 | 23.61190 | 41.58535 | 32969 ft | 529 kts | 65° |
| 2026-04-22 14:09 | 23.62475 | 41.62308 | 33151 ft | 530 kts | 65° |
| 2026-04-22 14:09 | 23.63762 | 41.66086 | 33370 ft | 529 kts | 65° |
| 2026-04-22 14:09 | 23.65042 | 41.69848 | 33561 ft | 529 kts | 65° |
| 2026-04-22 14:10 | 23.66310 | 41.73574 | 33692 ft | 530 kts | 65° |
| 2026-04-22 14:10 | 23.67581 | 41.77363 | 33824 ft | 531 kts | 65° |
| 2026-04-22 14:10 | 23.68815 | 41.81163 | 33999 ft | 531 kts | 66° |
| 2026-04-22 14:10 | 23.70024 | 41.84964 | 34137 ft | 531 kts | 66° |
| 2026-04-22 14:11 | 23.71230 | 41.88783 | 34281 ft | 532 kts | 66° |
| 2026-04-22 14:11 | 23.72434 | 41.92600 | 34451 ft | 532 kts | 66° |
| 2026-04-22 14:11 | 23.73638 | 41.96419 | 34604 ft | 532 kts | 66° |
| 2026-04-22 14:11 | 23.74858 | 42.00229 | 34716 ft | 532 kts | 65° |
| 2026-04-22 14:12 | 23.76127 | 42.04031 | 34853 ft | 532 kts | 65° |
| 2026-04-22 14:12 | 23.77422 | 42.07816 | 35008 ft | 531 kts | 64° |
| 2026-04-22 14:12 | 23.78729 | 42.11599 | 35120 ft | 531 kts | 64° |
| 2026-04-22 14:13 | 23.81326 | 42.19130 | 35298 ft | 533 kts | 65° |
| 2026-04-22 14:13 | 23.82626 | 42.22921 | 35427 ft | 533 kts | 65° |
| 2026-04-22 14:13 | 23.83925 | 42.26729 | 35505 ft | 534 kts | 65° |
| 2026-04-22 14:14 | 23.86515 | 42.34344 | 35673 ft | 535 kts | 65° |
| 2026-04-22 14:14 | 23.89107 | 42.41986 | 35848 ft | 537 kts | 65° |
| 2026-04-22 14:14 | 23.90404 | 42.45816 | 35955 ft | 537 kts | 65° |
| 2026-04-22 14:15 | 23.91709 | 42.49664 | 36067 ft | 542 kts | 65° |
| 2026-04-22 14:15 | 23.93002 | 42.53479 | 36298 ft | 539 kts | 65° |
| 2026-04-22 14:15 | 23.94300 | 42.57322 | 36365 ft | 540 kts | 66° |
| 2026-04-22 14:16 | 23.96910 | 42.65066 | 36385 ft | 543 kts | 66° |
| 2026-04-22 14:16 | 23.99527 | 42.72840 | 36514 ft | 544 kts | 66° |
| 2026-04-22 14:17 | 24.02126 | 42.80571 | 36682 ft | 544 kts | 66° |
| 2026-04-22 14:17 | 24.03824 | 42.88652 | 36800 ft | 547 kts | 89° |
| 2026-04-22 14:17 | 24.03546 | 42.92798 | 36848 ft | 542 kts | 104° |
| 2026-04-22 14:18 | 24.02720 | 42.96802 | 36894 ft | 540 kts | 107° |
| 2026-04-22 14:18 | 24.00663 | 43.04669 | 36907 ft | 541 kts | 110° |
| 2026-04-22 14:19 | 23.98424 | 43.12553 | 36906 ft | 541 kts | 110° |
| 2026-04-22 14:19 | 23.96219 | 43.20442 | 36910 ft | 540 kts | 109° |
| 2026-04-22 14:20 | 23.92988 | 43.32230 | 36910 ft | 539 kts | 109° |
| 2026-04-22 14:20 | 23.90856 | 43.40029 | 36910 ft | 540 kts | 109° |
| 2026-04-22 14:21 | 23.87618 | 43.51836 | 36910 ft | 539 kts | 109° |
| 2026-04-22 14:22 | 23.84372 | 43.63625 | 36903 ft | 539 kts | 109° |
| 2026-04-22 14:23 | 23.81126 | 43.75370 | 36903 ft | 540 kts | 109° |
| 2026-04-22 14:23 | 23.78950 | 43.83221 | 36910 ft | 540 kts | 109° |
| 2026-04-22 14:24 | 23.77304 | 43.91215 | 36904 ft | 541 kts | 97° |
| 2026-04-22 14:24 | 23.76549 | 43.99399 | 36907 ft | 542 kts | 95° |
| 2026-04-22 14:25 | 23.75962 | 44.07571 | 36911 ft | 542 kts | 94° |
| 2026-04-22 14:25 | 23.75379 | 44.15783 | 36902 ft | 541 kts | 95° |
| 2026-04-22 14:26 | 23.74778 | 44.23947 | 36912 ft | 541 kts | 95° |
| 2026-04-22 14:26 | 23.74157 | 44.32147 | 36908 ft | 541 kts | 95° |
| 2026-04-22 14:27 | 23.73528 | 44.40346 | 36911 ft | 541 kts | 95° |
| 2026-04-22 14:27 | 23.72897 | 44.48541 | 36901 ft | 540 kts | 95° |
| 2026-04-22 14:28 | 23.72264 | 44.56709 | 36899 ft | 540 kts | 95° |
| 2026-04-22 14:28 | 23.71627 | 44.64868 | 36909 ft | 539 kts | 95° |
| 2026-04-22 14:29 | 23.70987 | 44.72989 | 36898 ft | 539 kts | 95° |
| 2026-04-22 14:29 | 23.70341 | 44.81145 | 36900 ft | 538 kts | 95° |
| 2026-04-22 14:30 | 23.69695 | 44.89274 | 36897 ft | 537 kts | 95° |
| 2026-04-22 14:30 | 23.69048 | 44.97353 | 36895 ft | 537 kts | 95° |
| 2026-04-22 14:31 | 23.68390 | 45.05465 | 36896 ft | 537 kts | 95° |
| 2026-04-22 14:31 | 23.67731 | 45.13585 | 36901 ft | 536 kts | 95° |
| 2026-04-22 14:32 | 23.67180 | 45.20328 | 36897 ft | 536 kts | 95° |
| 2026-04-22 14:32 | 23.66512 | 45.28435 | 36901 ft | 536 kts | 95° |
| 2026-04-22 14:33 | 23.65842 | 45.36538 | 36904 ft | 535 kts | 95° |
| 2026-04-22 14:33 | 23.65172 | 45.44600 | 36905 ft | 536 kts | 95° |
| 2026-04-22 14:34 | 23.64493 | 45.52714 | 36912 ft | 536 kts | 95° |
| 2026-04-22 14:34 | 23.63813 | 45.60772 | 36908 ft | 535 kts | 96° |
| 2026-04-22 14:35 | 23.63123 | 45.68865 | 36899 ft | 535 kts | 96° |
| 2026-04-22 14:35 | 23.62431 | 45.76964 | 36899 ft | 535 kts | 96° |
| 2026-04-22 14:36 | 23.61743 | 45.84980 | 36904 ft | 535 kts | 96° |
| 2026-04-22 14:36 | 23.61044 | 45.93067 | 36912 ft | 535 kts | 96° |
| 2026-04-22 14:37 | 23.60341 | 46.01128 | 36897 ft | 534 kts | 96° |
| 2026-04-22 14:37 | 23.59633 | 46.09202 | 36900 ft | 534 kts | 96° |
| 2026-04-22 14:38 | 23.58921 | 46.17277 | 36904 ft | 535 kts | 96° |
| 2026-04-22 14:38 | 23.58198 | 46.25348 | 36894 ft | 534 kts | 96° |
| 2026-04-22 14:39 | 23.57482 | 46.33422 | 36871 ft | 535 kts | 96° |
| 2026-04-22 14:39 | 23.56769 | 46.41432 | 36862 ft | 534 kts | 96° |
| 2026-04-22 14:40 | 23.55673 | 46.53531 | 36860 ft | 533 kts | 96° |
| 2026-04-22 14:40 | 23.54942 | 46.61551 | 36860 ft | 533 kts | 96° |
| 2026-04-22 14:41 | 23.54206 | 46.69596 | 36861 ft | 533 kts | 96° |
| 2026-04-22 14:41 | 23.53467 | 46.77635 | 36866 ft | 532 kts | 96° |
| 2026-04-22 14:42 | 23.52724 | 46.85669 | 36870 ft | 532 kts | 96° |
| 2026-04-22 14:42 | 23.51975 | 46.93713 | 36870 ft | 532 kts | 96° |
| 2026-04-22 14:43 | 23.51226 | 47.01700 | 36868 ft | 532 kts | 96° |
| 2026-04-22 14:43 | 23.50467 | 47.09736 | 36862 ft | 532 kts | 96° |
| 2026-04-22 14:44 | 23.49707 | 47.17749 | 36860 ft | 531 kts | 96° |
| 2026-04-22 14:44 | 23.48945 | 47.25761 | 36860 ft | 531 kts | 96° |
| 2026-04-22 14:45 | 23.48185 | 47.33709 | 36859 ft | 531 kts | 96° |
| 2026-04-22 14:45 | 23.47416 | 47.41708 | 36859 ft | 531 kts | 96° |
| 2026-04-22 14:46 | 23.46641 | 47.49708 | 36860 ft | 530 kts | 96° |
| 2026-04-22 14:46 | 23.45864 | 47.57697 | 36860 ft | 530 kts | 96° |
| 2026-04-22 14:47 | 23.45082 | 47.65690 | 36850 ft | 529 kts | 96° |
| 2026-04-22 14:47 | 23.44302 | 47.73614 | 36850 ft | 529 kts | 96° |
| 2026-04-22 14:48 | 23.43516 | 47.81586 | 36850 ft | 529 kts | 96° |
| 2026-04-22 14:48 | 23.42726 | 47.89557 | 36852 ft | 529 kts | 97° |
| 2026-04-22 14:49 | 23.41930 | 47.97543 | 36850 ft | 529 kts | 97° |
| 2026-04-22 14:49 | 23.41134 | 48.05467 | 36850 ft | 529 kts | 96° |
| 2026-04-22 14:50 | 23.40330 | 48.13429 | 36850 ft | 528 kts | 97° |
| 2026-04-22 14:50 | 23.39522 | 48.21392 | 36850 ft | 528 kts | 97° |
| 2026-04-22 14:51 | 23.38710 | 48.29351 | 36850 ft | 528 kts | 97° |
| 2026-04-22 14:51 | 23.38002 | 48.37254 | 36850 ft | 528 kts | 93° |
| 2026-04-22 14:52 | 23.37669 | 48.45239 | 36850 ft | 528 kts | 91° |
| 2026-04-22 14:52 | 23.37417 | 48.53214 | 36850 ft | 527 kts | 91° |
| 2026-04-22 14:53 | 23.37128 | 48.61192 | 36844 ft | 527 kts | 92° |
| 2026-04-22 14:53 | 23.36805 | 48.69187 | 36843 ft | 527 kts | 92° |
| 2026-04-22 14:54 | 23.36467 | 48.77164 | 36841 ft | 528 kts | 92° |
| 2026-04-22 14:54 | 23.36128 | 48.85118 | 36845 ft | 528 kts | 92° |
| 2026-04-22 14:55 | 23.35784 | 48.93106 | 36843 ft | 527 kts | 92° |
| 2026-04-22 14:55 | 23.35436 | 49.01076 | 36844 ft | 527 kts | 92° |
| 2026-04-22 14:56 | 23.35078 | 49.09049 | 36845 ft | 527 kts | 92° |
| 2026-04-22 14:56 | 23.34675 | 49.16959 | 36844 ft | 527 kts | 92° |
| 2026-04-22 14:57 | 23.34250 | 49.24927 | 36843 ft | 527 kts | 92° |
| 2026-04-22 14:57 | 23.33827 | 49.32898 | 36838 ft | 527 kts | 92° |
| 2026-04-22 14:58 | 23.33405 | 49.40853 | 36839 ft | 526 kts | 92° |
| 2026-04-22 14:58 | 23.32979 | 49.48819 | 36842 ft | 526 kts | 92° |
| 2026-04-22 14:59 | 23.32552 | 49.56738 | 36812 ft | 526 kts | 93° |
| 2026-04-22 14:59 | 23.32117 | 49.64693 | 36814 ft | 526 kts | 92° |
| 2026-04-22 15:00 | 23.31682 | 49.72601 | 36816 ft | 526 kts | 93° |
| 2026-04-22 15:00 | 23.31240 | 49.80547 | 36816 ft | 526 kts | 93° |
| 2026-04-22 15:01 | 23.30795 | 49.88494 | 36817 ft | 526 kts | 92° |
| 2026-04-22 15:01 | 23.30347 | 49.96431 | 36812 ft | 525 kts | 92° |
| 2026-04-22 15:02 | 23.29896 | 50.04314 | 36811 ft | 525 kts | 93° |
| 2026-04-22 15:02 | 23.29440 | 50.12239 | 36816 ft | 524 kts | 92° |
| 2026-04-22 15:03 | 23.28981 | 50.20173 | 36828 ft | 524 kts | 92° |
| 2026-04-22 15:03 | 23.28518 | 50.28087 | 36820 ft | 524 kts | 92° |
| 2026-04-22 15:04 | 23.28049 | 50.36004 | 36827 ft | 524 kts | 92° |
| 2026-04-22 15:04 | 23.27577 | 50.43909 | 36824 ft | 523 kts | 92° |
| 2026-04-22 15:05 | 23.27105 | 50.51758 | 36824 ft | 522 kts | 92° |
| 2026-04-22 15:05 | 23.26626 | 50.59654 | 36818 ft | 522 kts | 92° |
| 2026-04-22 15:06 | 23.26145 | 50.67528 | 36823 ft | 521 kts | 92° |
| 2026-04-22 15:06 | 23.25660 | 50.75404 | 36820 ft | 521 kts | 92° |
| 2026-04-22 15:07 | 23.25172 | 50.83261 | 36820 ft | 520 kts | 92° |
| 2026-04-22 15:07 | 23.24681 | 50.91114 | 36817 ft | 520 kts | 92° |
| 2026-04-22 15:08 | 23.24188 | 50.98926 | 36824 ft | 520 kts | 92° |
| 2026-04-22 15:08 | 23.23689 | 51.06775 | 36831 ft | 520 kts | 92° |
| 2026-04-22 15:09 | 23.23186 | 51.14617 | 36830 ft | 519 kts | 92° |
| 2026-04-22 15:09 | 23.22683 | 51.22415 | 36830 ft | 519 kts | 92° |
| 2026-04-22 15:10 | 23.22171 | 51.30269 | 36824 ft | 519 kts | 93° |
| 2026-04-22 15:10 | 23.21657 | 51.38095 | 36805 ft | 518 kts | 93° |
| 2026-04-22 15:11 | 23.21140 | 51.45926 | 36801 ft | 518 kts | 93° |
| 2026-04-22 15:11 | 23.20620 | 51.53726 | 36803 ft | 517 kts | 93° |
| 2026-04-22 15:12 | 23.20097 | 51.61523 | 36806 ft | 517 kts | 93° |
| 2026-04-22 15:12 | 23.19572 | 51.69307 | 36816 ft | 517 kts | 93° |
| 2026-04-22 15:13 | 23.19045 | 51.77038 | 36816 ft | 516 kts | 93° |
| 2026-04-22 15:13 | 23.18510 | 51.84836 | 36813 ft | 517 kts | 93° |
| 2026-04-22 15:14 | 23.17969 | 51.92643 | 36813 ft | 516 kts | 93° |
| 2026-04-22 15:14 | 23.17427 | 52.00427 | 36811 ft | 516 kts | 93° |
| 2026-04-22 15:15 | 23.16975 | 52.06877 | 36816 ft | 514 kts | 93° |
| 2026-04-22 15:15 | 23.16339 | 52.15891 | 36816 ft | 514 kts | 93° |
| 2026-04-22 15:16 | 23.15880 | 52.22342 | 36812 ft | 514 kts | 93° |
| 2026-04-22 15:16 | 23.15327 | 52.30080 | 36814 ft | 513 kts | 93° |
| 2026-04-22 15:17 | 23.14848 | 52.37841 | 36805 ft | 511 kts | 86° |
| 2026-04-22 15:17 | 23.15179 | 52.41668 | 36813 ft | 506 kts | 75° |
| 2026-04-22 15:17 | 23.16036 | 52.45319 | 36819 ft | 502 kts | 69° |
| 2026-04-22 15:18 | 23.18383 | 52.52427 | 36804 ft | 495 kts | 57° |
| 2026-04-22 15:18 | 23.21642 | 52.58999 | 36804 ft | 494 kts | 55° |
| 2026-04-22 15:19 | 23.25048 | 52.65508 | 36804 ft | 494 kts | 54° |
| 2026-04-22 15:19 | 23.28441 | 52.72007 | 36785 ft | 494 kts | 55° |
| 2026-04-22 15:20 | 23.31807 | 52.78518 | 36806 ft | 494 kts | 55° |
| 2026-04-22 15:20 | 23.35161 | 52.85045 | 36804 ft | 494 kts | 55° |
| 2026-04-22 15:21 | 23.38495 | 52.91542 | 36802 ft | 493 kts | 55° |
| 2026-04-22 15:21 | 23.41864 | 52.98067 | 36806 ft | 493 kts | 54° |
| 2026-04-22 15:22 | 23.45310 | 53.04534 | 36805 ft | 492 kts | 54° |
| 2026-04-22 15:22 | 23.48745 | 53.10931 | 36806 ft | 491 kts | 54° |
| 2026-04-22 15:23 | 23.52187 | 53.17362 | 36806 ft | 491 kts | 54° |
| 2026-04-22 15:23 | 23.55628 | 53.23818 | 36804 ft | 491 kts | 54° |
| 2026-04-22 15:24 | 23.59057 | 53.30274 | 36803 ft | 491 kts | 54° |
| 2026-04-22 15:24 | 23.62483 | 53.36725 | 36807 ft | 491 kts | 54° |
| 2026-04-22 15:25 | 23.65888 | 53.43143 | 36795 ft | 491 kts | 54° |
| 2026-04-22 15:25 | 23.69315 | 53.49608 | 36796 ft | 491 kts | 54° |
| 2026-04-22 15:26 | 23.72731 | 53.56039 | 36794 ft | 491 kts | 54° |
| 2026-04-22 15:26 | 23.76174 | 53.62496 | 36794 ft | 490 kts | 54° |
| 2026-04-22 15:27 | 23.79600 | 53.68929 | 36794 ft | 490 kts | 54° |
| 2026-04-22 15:27 | 23.83025 | 53.75372 | 36795 ft | 489 kts | 54° |
| 2026-04-22 15:28 | 23.86422 | 53.81773 | 36795 ft | 489 kts | 54° |
| 2026-04-22 15:28 | 23.89841 | 53.88224 | 36795 ft | 490 kts | 54° |
| 2026-04-22 15:29 | 23.93258 | 53.94680 | 36794 ft | 490 kts | 54° |
| 2026-04-22 15:30 | 23.98354 | 54.04323 | 36795 ft | 490 kts | 54° |
| 2026-04-22 15:30 | 24.01742 | 54.10794 | 36647 ft | 490 kts | 55° |
| 2026-04-22 15:30 | 24.03423 | 54.14041 | 36395 ft | 490 kts | 55° |
| 2026-04-22 15:31 | 24.05232 | 54.17178 | 36147 ft | 484 kts | 47° |
| 2026-04-22 15:31 | 24.07420 | 54.19943 | 35894 ft | 477 kts | 36° |
| 2026-04-22 15:31 | 24.09970 | 54.22204 | 35601 ft | 469 kts | 25° |
| 2026-04-22 15:31 | 24.12803 | 54.23949 | 34843 ft | 467 kts | 19° |
| 2026-04-22 15:32 | 24.15755 | 54.25489 | 33807 ft | 473 kts | 18° |
| 2026-04-22 15:32 | 24.18756 | 54.27003 | 32949 ft | 476 kts | 18° |
| 2026-04-22 15:32 | 24.21764 | 54.28522 | 32181 ft | 477 kts | 19° |
| 2026-04-22 15:32 | 24.24784 | 54.30054 | 31428 ft | 477 kts | 19° |
| 2026-04-22 15:33 | 24.27768 | 54.31572 | 30668 ft | 476 kts | 19° |
| 2026-04-22 15:33 | 24.30773 | 54.33103 | 29914 ft | 475 kts | 20° |
| 2026-04-22 15:33 | 24.33768 | 54.34631 | 29240 ft | 471 kts | 20° |
| 2026-04-22 15:33 | 24.36738 | 54.36146 | 28443 ft | 471 kts | 20° |
| 2026-04-22 15:34 | 24.39688 | 54.37653 | 27607 ft | 472 kts | 21° |
| 2026-04-22 15:34 | 24.42666 | 54.39177 | 26735 ft | 472 kts | 21° |
| 2026-04-22 15:34 | 24.45642 | 54.40700 | 26116 ft | 468 kts | 21° |
| 2026-04-22 15:34 | 24.48580 | 54.42205 | 25531 ft | 462 kts | 21° |
| 2026-04-22 15:35 | 24.50502 | 54.43190 | 25135 ft | 458 kts | 22° |
| 2026-04-22 15:35 | 24.54345 | 54.45160 | 24308 ft | 452 kts | 22° |
| 2026-04-22 15:35 | 24.57176 | 54.46612 | 23724 ft | 447 kts | 22° |
| 2026-04-22 15:35 | 24.59984 | 54.48052 | 23111 ft | 443 kts | 22° |
| 2026-04-22 15:36 | 24.62764 | 54.49478 | 22507 ft | 439 kts | 22° |
| 2026-04-22 15:36 | 24.65516 | 54.50891 | 21909 ft | 435 kts | 22° |
| 2026-04-22 15:36 | 24.68244 | 54.52294 | 21316 ft | 431 kts | 22° |
| 2026-04-22 15:36 | 24.70947 | 54.53684 | 20729 ft | 426 kts | 22° |
| 2026-04-22 15:37 | 24.73628 | 54.55062 | 20136 ft | 422 kts | 22° |
| 2026-04-22 15:37 | 24.76274 | 54.56425 | 19565 ft | 418 kts | 23° |
| 2026-04-22 15:37 | 24.78897 | 54.57775 | 18982 ft | 414 kts | 23° |
| 2026-04-22 15:37 | 24.81465 | 54.59096 | 18405 ft | 410 kts | 23° |
| 2026-04-22 15:38 | 24.84040 | 54.60423 | 17826 ft | 407 kts | 23° |
| 2026-04-22 15:38 | 24.89118 | 54.63041 | 16695 ft | 399 kts | 23° |
| 2026-04-22 15:38 | 24.91624 | 54.64336 | 16072 ft | 397 kts | 24° |
| 2026-04-22 15:39 | 24.94026 | 54.65846 | 15655 ft | 401 kts | 32° |
| 2026-04-22 15:39 | 24.96355 | 54.67609 | 15432 ft | 408 kts | 34° |
| 2026-04-22 15:39 | 24.98679 | 54.69426 | 15179 ft | 408 kts | 34° |
| 2026-04-22 15:39 | 25.00988 | 54.71240 | 14940 ft | 406 kts | 34° |
| 2026-04-22 15:40 | 25.03296 | 54.73050 | 14692 ft | 405 kts | 34° |
| 2026-04-22 15:40 | 25.05588 | 54.74848 | 14445 ft | 404 kts | 34° |
| 2026-04-22 15:40 | 25.07873 | 54.76641 | 14278 ft | 402 kts | 34° |
| 2026-04-22 15:40 | 25.10130 | 54.78409 | 14142 ft | 402 kts | 34° |
| 2026-04-22 15:41 | 25.12405 | 54.80195 | 13935 ft | 401 kts | 34° |
| 2026-04-22 15:41 | 25.14684 | 54.81985 | 13685 ft | 400 kts | 35° |
| 2026-04-22 15:41 | 25.16883 | 54.83888 | 13431 ft | 398 kts | 38° |
| 2026-04-22 15:41 | 25.18980 | 54.85833 | 13192 ft | 397 kts | 39° |
| 2026-04-22 15:42 | 25.21093 | 54.87810 | 12950 ft | 396 kts | 39° |
| 2026-04-22 15:42 | 25.23195 | 54.89777 | 12703 ft | 395 kts | 39° |
| 2026-04-22 15:42 | 25.25289 | 54.91736 | 12465 ft | 394 kts | 39° |
| 2026-04-22 15:42 | 25.27382 | 54.93688 | 12221 ft | 392 kts | 39° |
| 2026-04-22 15:43 | 25.29461 | 54.95646 | 11973 ft | 392 kts | 40° |
| 2026-04-22 15:43 | 25.31519 | 54.97612 | 11740 ft | 391 kts | 40° |
| 2026-04-22 15:43 | 25.33571 | 54.99574 | 11505 ft | 390 kts | 40° |
| 2026-04-22 15:43 | 25.35618 | 55.01534 | 11265 ft | 388 kts | 40° |
| 2026-04-22 15:44 | 25.37641 | 55.03471 | 11031 ft | 388 kts | 40° |
| 2026-04-22 15:44 | 25.39681 | 55.05426 | 10800 ft | 386 kts | 40° |
| 2026-04-22 15:44 | 25.41707 | 55.07366 | 10556 ft | 385 kts | 40° |
| 2026-04-22 15:44 | 25.43734 | 55.09308 | 10325 ft | 385 kts | 40° |
| 2026-04-22 15:45 | 25.45759 | 55.11250 | 10089 ft | 383 kts | 40° |
| 2026-04-22 15:45 | 25.47749 | 55.13160 | 9824 ft | 375 kts | 40° |
| 2026-04-22 15:45 | 25.49682 | 55.15015 | 9589 ft | 358 kts | 40° |
| 2026-04-22 15:45 | 25.51504 | 55.16764 | 9290 ft | 335 kts | 40° |
| 2026-04-22 15:46 | 25.53212 | 55.18407 | 8927 ft | 317 kts | 41° |
| 2026-04-22 15:46 | 25.54707 | 55.20132 | 8658 ft | 307 kts | 53° |
| 2026-04-22 15:46 | 25.55717 | 55.22192 | 8410 ft | 305 kts | 72° |
| 2026-04-22 15:46 | 25.56092 | 55.24483 | 8161 ft | 302 kts | 91° |
| 2026-04-22 15:47 | 25.55794 | 55.26765 | 8031 ft | 298 kts | 110° |
| 2026-04-22 15:47 | 25.54950 | 55.28855 | 8024 ft | 297 kts | 120° |
| 2026-04-22 15:47 | 25.53939 | 55.30824 | 8023 ft | 298 kts | 122° |
| 2026-04-22 15:47 | 25.52890 | 55.32797 | 7973 ft | 298 kts | 122° |
| 2026-04-22 15:48 | 25.51837 | 55.34775 | 7799 ft | 297 kts | 122° |
| 2026-04-22 15:48 | 25.50792 | 55.36752 | 7651 ft | 296 kts | 122° |
| 2026-04-22 15:48 | 25.49758 | 55.38715 | 7492 ft | 295 kts | 122° |
| 2026-04-22 15:48 | 25.48723 | 55.40680 | 7353 ft | 295 kts | 122° |
| 2026-04-22 15:49 | 25.47670 | 55.42628 | 7202 ft | 294 kts | 122° |
| 2026-04-22 15:49 | 25.46613 | 55.44564 | 7055 ft | 294 kts | 122° |
| 2026-04-22 15:49 | 25.45555 | 55.46493 | 6921 ft | 293 kts | 122° |
| 2026-04-22 15:49 | 25.44478 | 55.48397 | 6756 ft | 291 kts | 124° |
| 2026-04-22 15:50 | 25.43380 | 55.50274 | 6615 ft | 291 kts | 124° |
| 2026-04-22 15:50 | 25.42276 | 55.52149 | 6463 ft | 290 kts | 124° |
| 2026-04-22 15:50 | 25.41175 | 55.54012 | 6324 ft | 289 kts | 124° |
| 2026-04-22 15:50 | 25.40070 | 55.55876 | 6175 ft | 289 kts | 124° |
| 2026-04-22 15:51 | 25.38981 | 55.57714 | 6031 ft | 288 kts | 124° |
| 2026-04-22 15:51 | 25.37901 | 55.59576 | 5889 ft | 286 kts | 123° |
| 2026-04-22 15:51 | 25.36850 | 55.61456 | 5734 ft | 287 kts | 122° |
| 2026-04-22 15:51 | 25.35807 | 55.63342 | 5607 ft | 286 kts | 122° |
| 2026-04-22 15:52 | 25.34767 | 55.65219 | 5452 ft | 286 kts | 122° |
| 2026-04-22 15:52 | 25.33731 | 55.67090 | 5307 ft | 285 kts | 122° |
| 2026-04-22 15:52 | 25.32693 | 55.68963 | 5160 ft | 284 kts | 122° |
| 2026-04-22 15:52 | 25.31663 | 55.70824 | 5018 ft | 284 kts | 122° |
| 2026-04-22 15:53 | 25.30643 | 55.72659 | 4872 ft | 283 kts | 122° |
| 2026-04-22 15:53 | 25.29610 | 55.74514 | 4724 ft | 282 kts | 122° |
| 2026-04-22 15:53 | 25.28572 | 55.76349 | 4588 ft | 280 kts | 123° |
| 2026-04-22 15:53 | 25.27520 | 55.78159 | 4445 ft | 280 kts | 123° |
| 2026-04-22 15:54 | 25.26462 | 55.79965 | 4306 ft | 280 kts | 123° |
| 2026-04-22 15:54 | 25.25408 | 55.81767 | 4165 ft | 279 kts | 123° |
| 2026-04-22 15:54 | 25.24297 | 55.83518 | 4018 ft | 278 kts | 131° |
| 2026-04-22 15:54 | 25.22850 | 55.84911 | 3872 ft | 275 kts | 150° |
| 2026-04-22 15:55 | 25.21066 | 55.85619 | 3722 ft | 273 kts | 174° |
| 2026-04-22 15:55 | 25.19224 | 55.85409 | 3566 ft | 262 kts | 201° |
| 2026-04-22 15:55 | 25.17738 | 55.84369 | 3425 ft | 248 kts | 229° |
| 2026-04-22 15:55 | 25.17049 | 55.82735 | 3296 ft | 230 kts | 262° |
| 2026-04-22 15:56 | 25.17014 | 55.81588 | 3197 ft | 221 kts | 275° |
| 2026-04-22 15:56 | 25.17321 | 55.79992 | 3067 ft | 204 kts | 287° |
| 2026-04-22 15:56 | 25.17749 | 55.78589 | 3076 ft | 185 kts | 289° |
| 2026-04-22 15:56 | 25.18176 | 55.77256 | 3037 ft | 184 kts | 289° |
| 2026-04-22 15:57 | 25.18607 | 55.75916 | 3007 ft | 186 kts | 289° |
| 2026-04-22 15:57 | 25.19273 | 55.74705 | 3005 ft | 186 kts | 310° |
| 2026-04-22 15:57 | 25.20134 | 55.73638 | 3006 ft | 186 kts | 310° |
| 2026-04-22 15:57 | 25.20954 | 55.72532 | 3005 ft | 186 kts | 307° |
| 2026-04-22 15:58 | 25.21713 | 55.71377 | 3006 ft | 186 kts | 304° |
| 2026-04-22 15:58 | 25.22431 | 55.70190 | 3005 ft | 186 kts | 303° |
| 2026-04-22 15:58 | 25.23141 | 55.68994 | 3006 ft | 186 kts | 303° |
| 2026-04-22 15:58 | 25.23847 | 55.67800 | 3010 ft | 186 kts | 302° |
| 2026-04-22 15:59 | 25.24542 | 55.66618 | 3007 ft | 185 kts | 302° |
| 2026-04-22 15:59 | 25.25231 | 55.65434 | 2880 ft | 179 kts | 302° |
| 2026-04-22 15:59 | 25.25896 | 55.64283 | 2451 ft | 177 kts | 302° |
| 2026-04-22 15:59 | 25.26566 | 55.63120 | 2245 ft | 182 kts | 302° |
| 2026-04-22 16:00 | 25.27246 | 55.61941 | 2129 ft | 180 kts | 302° |
| 2026-04-22 16:00 | 25.27911 | 55.60789 | 1707 ft | 177 kts | 302° |
| 2026-04-22 16:00 | 25.28575 | 55.59646 | 1230 ft | 175 kts | 303° |
| 2026-04-22 16:00 | 25.29229 | 55.58550 | 897 ft | 165 kts | 303° |
| 2026-04-22 16:01 | 25.29827 | 55.57531 | 676 ft | 149 kts | 301° |
| 2026-04-22 16:01 | 25.30330 | 55.56608 | 470 ft | 135 kts | 302° |
| 2026-04-22 16:01 | 25.30878 | 55.55654 | 419 ft | 159 kts | 302° |
| 2026-04-22 16:01 | 25.31417 | 55.54669 | 291 ft | 143 kts | 301° |
| 2026-04-22 16:02 | 25.31995 | 55.53675 | 205 ft | 152 kts | 303° |
| 2026-04-22 16:02 | 25.32547 | 55.52727 | 122 ft | 137 kts | 302° |
| 2026-04-22 16:02 | 25.32972 | 55.51995 | 117 ft | 90 kts | 302° |
| 2026-04-22 16:02 | 25.33125 | 55.51719 | 118 ft | 17 kts | 302° |
| 2026-04-22 16:03 | 25.33176 | 55.51603 | 119 ft | 16 kts | 283° |
| 2026-04-22 16:03 | 25.33184 | 55.51504 | 120 ft | 10 kts | 271° |
| 2026-04-22 16:03 | 25.33195 | 55.51435 | 118 ft | 10 kts | 276° |
| 2026-04-22 16:03 | 25.33201 | 55.51357 | 115 ft | 10 kts | 283° |
| 2026-04-22 16:04 | 25.33216 | 55.51277 | 114 ft | 10 kts | 273° |
| 2026-04-22 16:04 | 25.33207 | 55.51222 | 116 ft | 6 kts | 275° |
| 2026-04-22 16:04 | 25.33210 | 55.51168 | 115 ft | 9 kts | 276° |
| 2026-04-22 16:04 | 25.33231 | 55.51085 | 117 ft | 12 kts | 295° |
| 2026-04-22 16:05 | 25.33272 | 55.51002 | 117 ft | 12 kts | 302° |
| 2026-04-22 16:05 | 25.33292 | 55.50915 | 114 ft | 12 kts | 250° |
| 2026-04-22 16:05 | 25.33213 | 55.50850 | 114 ft | 16 kts | 188° |
| 2026-04-22 16:05 | 25.33129 | 55.50911 | 114 ft | 16 kts | 126° |
| 2026-04-22 16:06 | 25.33066 | 55.51017 | 118 ft | 17 kts | 123° |
| 2026-04-22 16:06 | 25.33005 | 55.51125 | 115 ft | 17 kts | 121° |
| 2026-04-22 16:06 | 25.32943 | 55.51233 | 116 ft | 16 kts | 122° |
| 2026-04-22 16:06 | 25.32882 | 55.51338 | 117 ft | 16 kts | 123° |
| 2026-04-22 16:07 | 25.32821 | 55.51445 | 118 ft | 17 kts | 122° |
| 2026-04-22 16:07 | 25.32763 | 55.51546 | 118 ft | 13 kts | 124° |
| 2026-04-22 16:07 | 25.32699 | 55.51569 | 118 ft | 8 kts | 205° |
| 2026-04-22 16:07 | 25.32656 | 55.51540 | 117 ft | 6 kts | 212° |
| 2026-04-22 16:08 | 25.32642 | 55.51530 | 118 ft | 3 kts | 212° |
| 2026-04-22 16:08 | 25.32618 | 55.51514 | 117 ft | 5 kts | 211° |
| 2026-04-22 16:08 | 25.32593 | 55.51513 | 118 ft | 2 kts | 139° |
| 2026-04-22 16:08 | 25.32580 | 55.51535 | 117 ft | 5 kts | 122° |
| 2026-04-22 16:09 | 25.32571 | 55.51550 | 116 ft | 0 kts | 122° |
| 2026-04-22 16:09 | 25.32570 | 55.51552 | 118 ft | 0 kts | 122° |